sensor_id;sensor_type;location;lat;lon;timestamp;temperature;humidity
1175;DHT22;576;48.418;10.074;2023-07-13T00:01:16;29.60;66.40
1175;DHT22;576;48.418;10.074;2023-07-13T00:03:44;29.60;66.40
1175;DHT22;576;48.418;10.074;2023-07-13T00:06:13;29.60;66.40
1175;DHT22;576;48.418;10.074;2023-07-13T00:08:41;29.60;66.40
1175;DHT22;576;48.418;10.074;2023-07-13T00:11:09;29.60;66.40
1175;DHT22;576;48.418;10.074;2023-07-13T00:13:38;29.60;66.40
1175;DHT22;576;48.418;10.074;2023-07-13T00:16:07;29.60;66.40
1175;DHT22;576;48.418;10.074;2023-07-13T00:18:37;29.60;66.40
1175;DHT22;576;48.418;10.074;2023-07-13T00:21:05;29.60;66.40
1175;DHT22;576;48.418;10.074;2023-07-13T00:23:35;29.60;66.40
1175;DHT22;576;48.418;10.074;2023-07-13T00:26:04;29.60;66.40
1175;DHT22;576;48.418;10.074;2023-07-13T00:28:34;29.60;66.40
1175;DHT22;576;48.418;10.074;2023-07-13T00:31:02;29.60;66.40
1175;DHT22;576;48.418;10.074;2023-07-13T00:33:33;29.60;66.50
1175;DHT22;576;48.418;10.074;2023-07-13T00:36:04;29.60;66.40
1175;DHT22;576;48.418;10.074;2023-07-13T00:38:32;29.60;66.50
1175;DHT22;576;48.418;10.074;2023-07-13T00:41:01;29.50;66.40
1175;DHT22;576;48.418;10.074;2023-07-13T00:43:31;29.50;66.40
1175;DHT22;576;48.418;10.074;2023-07-13T00:46:22;29.50;66.40
1175;DHT22;576;48.418;10.074;2023-07-13T00:48:53;29.50;66.30
1175;DHT22;576;48.418;10.074;2023-07-13T00:51:30;29.50;66.30
1175;DHT22;576;48.418;10.074;2023-07-13T00:54:01;29.50;66.40
1175;DHT22;576;48.418;10.074;2023-07-13T00:56:31;29.50;66.30
1175;DHT22;576;48.418;10.074;2023-07-13T00:59:02;29.50;66.30
1175;DHT22;576;48.418;10.074;2023-07-13T01:01:31;29.50;66.20
1175;DHT22;576;48.418;10.074;2023-07-13T01:04:00;29.50;66.20
1175;DHT22;576;48.418;10.074;2023-07-13T01:06:30;29.50;66.20
1175;DHT22;576;48.418;10.074;2023-07-13T01:08:59;29.50;66.20
1175;DHT22;576;48.418;10.074;2023-07-13T01:11:28;29.50;66.20
1175;DHT22;576;48.418;10.074;2023-07-13T01:13:56;29.50;66.10
1175;DHT22;576;48.418;10.074;2023-07-13T01:16:27;29.50;66.10
1175;DHT22;576;48.418;10.074;2023-07-13T01:18:57;29.50;66.10
1175;DHT22;576;48.418;10.074;2023-07-13T01:21:29;29.50;66.10
1175;DHT22;576;48.418;10.074;2023-07-13T01:23:59;29.50;66.10
1175;DHT22;576;48.418;10.074;2023-07-13T01:26:27;29.50;66.10
1175;DHT22;576;48.418;10.074;2023-07-13T01:28:55;29.50;66.10
1175;DHT22;576;48.418;10.074;2023-07-13T01:31:24;29.50;66.00
1175;DHT22;576;48.418;10.074;2023-07-13T01:33:52;29.50;65.90
1175;DHT22;576;48.418;10.074;2023-07-13T01:36:21;29.50;65.90
1175;DHT22;576;48.418;10.074;2023-07-13T01:38:50;29.40;66.00
1175;DHT22;576;48.418;10.074;2023-07-13T01:41:18;29.40;66.00
1175;DHT22;576;48.418;10.074;2023-07-13T01:43:47;29.40;66.00
1175;DHT22;576;48.418;10.074;2023-07-13T01:46:17;29.40;65.90
1175;DHT22;576;48.418;10.074;2023-07-13T01:48:51;29.40;66.00
1175;DHT22;576;48.418;10.074;2023-07-13T01:51:20;29.40;65.90
1175;DHT22;576;48.418;10.074;2023-07-13T01:53:50;29.40;65.90
1175;DHT22;576;48.418;10.074;2023-07-13T01:56:18;29.40;65.80
1175;DHT22;576;48.418;10.074;2023-07-13T01:58:47;29.40;65.80
1175;DHT22;576;48.418;10.074;2023-07-13T02:01:15;29.40;65.80
1175;DHT22;576;48.418;10.074;2023-07-13T02:03:44;29.40;65.80
1175;DHT22;576;48.418;10.074;2023-07-13T02:06:13;29.40;65.80
1175;DHT22;576;48.418;10.074;2023-07-13T02:08:41;29.40;65.80
1175;DHT22;576;48.418;10.074;2023-07-13T02:11:12;29.40;65.80
1175;DHT22;576;48.418;10.074;2023-07-13T02:13:40;29.30;65.80
1175;DHT22;576;48.418;10.074;2023-07-13T02:16:08;29.30;65.70
1175;DHT22;576;48.418;10.074;2023-07-13T02:18:37;29.30;65.80
1175;DHT22;576;48.418;10.074;2023-07-13T02:21:05;29.30;65.70
1175;DHT22;576;48.418;10.074;2023-07-13T02:23:33;29.30;65.70
1175;DHT22;576;48.418;10.074;2023-07-13T02:26:03;29.30;65.70
1175;DHT22;576;48.418;10.074;2023-07-13T02:28:33;29.30;65.80
1175;DHT22;576;48.418;10.074;2023-07-13T02:31:06;29.30;65.70
1175;DHT22;576;48.418;10.074;2023-07-13T02:33:35;29.20;65.80
1175;DHT22;576;48.418;10.074;2023-07-13T02:36:04;29.20;65.80
1175;DHT22;576;48.418;10.074;2023-07-13T02:38:33;29.20;65.80
1175;DHT22;576;48.418;10.074;2023-07-13T02:41:02;29.20;65.70
1175;DHT22;576;48.418;10.074;2023-07-13T02:43:30;29.20;65.60
1175;DHT22;576;48.418;10.074;2023-07-13T02:46:00;29.20;65.60
1175;DHT22;576;48.418;10.074;2023-07-13T02:48:36;29.20;65.80
1175;DHT22;576;48.418;10.074;2023-07-13T02:51:04;29.20;66.00
1175;DHT22;576;48.418;10.074;2023-07-13T02:53:33;29.20;65.90
1175;DHT22;576;48.418;10.074;2023-07-13T02:56:04;29.20;65.90
1175;DHT22;576;48.418;10.074;2023-07-13T02:58:32;29.20;65.90
1175;DHT22;576;48.418;10.074;2023-07-13T03:01:08;29.20;65.90
1175;DHT22;576;48.418;10.074;2023-07-13T03:03:37;29.20;65.90
1175;DHT22;576;48.418;10.074;2023-07-13T03:06:06;29.20;65.90
1175;DHT22;576;48.418;10.074;2023-07-13T03:08:45;29.20;65.80
1175;DHT22;576;48.418;10.074;2023-07-13T03:11:15;29.20;65.80
1175;DHT22;576;48.418;10.074;2023-07-13T03:13:48;29.20;65.80
1175;DHT22;576;48.418;10.074;2023-07-13T03:16:17;29.20;65.80
1175;DHT22;576;48.418;10.074;2023-07-13T03:18:48;29.20;65.80
1175;DHT22;576;48.418;10.074;2023-07-13T03:21:17;29.20;65.70
1175;DHT22;576;48.418;10.074;2023-07-13T03:23:46;29.20;65.70
1175;DHT22;576;48.418;10.074;2023-07-13T03:26:18;29.20;65.60
1175;DHT22;576;48.418;10.074;2023-07-13T03:28:48;29.20;65.60
1175;DHT22;576;48.418;10.074;2023-07-13T03:31:25;29.10;65.60
1175;DHT22;576;48.418;10.074;2023-07-13T03:33:56;29.10;65.60
1175;DHT22;576;48.418;10.074;2023-07-13T03:36:28;29.10;65.60
1175;DHT22;576;48.418;10.074;2023-07-13T03:39:01;29.10;65.60
1175;DHT22;576;48.418;10.074;2023-07-13T03:41:36;29.10;65.60
1175;DHT22;576;48.418;10.074;2023-07-13T03:44:05;29.10;65.60
1175;DHT22;576;48.418;10.074;2023-07-13T03:46:35;29.10;65.20
1175;DHT22;576;48.418;10.074;2023-07-13T03:49:04;29.10;65.50
1175;DHT22;576;48.418;10.074;2023-07-13T03:51:33;29.10;65.50
1175;DHT22;576;48.418;10.074;2023-07-13T03:54:03;29.10;65.40
1175;DHT22;576;48.418;10.074;2023-07-13T03:56:31;29.10;65.40
1175;DHT22;576;48.418;10.074;2023-07-13T03:59:02;29.10;65.40
1175;DHT22;576;48.418;10.074;2023-07-13T04:01:30;29.10;65.20
1175;DHT22;576;48.418;10.074;2023-07-13T04:04:00;29.10;65.10
1175;DHT22;576;48.418;10.074;2023-07-13T04:06:31;29.10;65.30
1175;DHT22;576;48.418;10.074;2023-07-13T04:09:02;29.10;65.30
1175;DHT22;576;48.418;10.074;2023-07-13T04:11:33;29.10;64.90
1175;DHT22;576;48.418;10.074;2023-07-13T04:14:04;29.00;65.00
1175;DHT22;576;48.418;10.074;2023-07-13T04:16:33;29.00;65.20
1175;DHT22;576;48.418;10.074;2023-07-13T04:19:03;29.00;65.30
1175;DHT22;576;48.418;10.074;2023-07-13T04:21:31;29.00;65.20
1175;DHT22;576;48.418;10.074;2023-07-13T04:24:00;29.00;65.10
1175;DHT22;576;48.418;10.074;2023-07-13T04:26:28;29.00;65.20
1175;DHT22;576;48.418;10.074;2023-07-13T04:28:57;29.00;65.20
1175;DHT22;576;48.418;10.074;2023-07-13T04:31:25;29.00;65.00
1175;DHT22;576;48.418;10.074;2023-07-13T04:33:55;29.00;65.10
1175;DHT22;576;48.418;10.074;2023-07-13T04:36:25;29.00;65.20
1175;DHT22;576;48.418;10.074;2023-07-13T04:38:54;29.00;65.10
1175;DHT22;576;48.418;10.074;2023-07-13T04:41:22;29.00;65.00
1175;DHT22;576;48.418;10.074;2023-07-13T04:43:51;29.00;65.00
1175;DHT22;576;48.418;10.074;2023-07-13T04:46:22;29.00;65.10
1175;DHT22;576;48.418;10.074;2023-07-13T04:48:51;29.00;65.00
1175;DHT22;576;48.418;10.074;2023-07-13T04:51:20;29.00;65.00
1175;DHT22;576;48.418;10.074;2023-07-13T04:53:50;29.00;65.00
1175;DHT22;576;48.418;10.074;2023-07-13T04:56:25;29.00;65.10
1175;DHT22;576;48.418;10.074;2023-07-13T04:58:54;29.00;65.20
1175;DHT22;576;48.418;10.074;2023-07-13T05:01:22;29.00;65.30
1175;DHT22;576;48.418;10.074;2023-07-13T05:03:51;29.00;65.30
1175;DHT22;576;48.418;10.074;2023-07-13T05:06:19;29.00;65.30
1175;DHT22;576;48.418;10.074;2023-07-13T05:08:47;29.10;65.30
1175;DHT22;576;48.418;10.074;2023-07-13T05:11:18;29.00;65.30
1175;DHT22;576;48.418;10.074;2023-07-13T05:13:46;29.10;65.40
1175;DHT22;576;48.418;10.074;2023-07-13T05:16:14;29.10;65.50
1175;DHT22;576;48.418;10.074;2023-07-13T05:18:42;29.10;65.40
1175;DHT22;576;48.418;10.074;2023-07-13T05:21:11;29.10;65.40
1175;DHT22;576;48.418;10.074;2023-07-13T05:23:40;29.10;65.20
1175;DHT22;576;48.418;10.074;2023-07-13T05:26:10;29.10;65.20
1175;DHT22;576;48.418;10.074;2023-07-13T05:28:40;29.10;65.10
1175;DHT22;576;48.418;10.074;2023-07-13T05:31:09;29.10;65.20
1175;DHT22;576;48.418;10.074;2023-07-13T05:33:38;29.10;65.30
1175;DHT22;576;48.418;10.074;2023-07-13T05:36:07;29.10;65.30
1175;DHT22;576;48.418;10.074;2023-07-13T05:38:35;29.10;65.40
1175;DHT22;576;48.418;10.074;2023-07-13T05:41:03;29.10;65.40
1175;DHT22;576;48.418;10.074;2023-07-13T05:43:32;29.10;65.40
1175;DHT22;576;48.418;10.074;2023-07-13T05:46:02;29.10;65.40
1175;DHT22;576;48.418;10.074;2023-07-13T05:48:30;29.10;65.40
1175;DHT22;576;48.418;10.074;2023-07-13T05:50:58;29.10;65.40
1175;DHT22;576;48.418;10.074;2023-07-13T05:53:26;29.10;65.40
1175;DHT22;576;48.418;10.074;2023-07-13T05:55:55;29.10;65.40
1175;DHT22;576;48.418;10.074;2023-07-13T05:58:26;29.20;65.30
1175;DHT22;576;48.418;10.074;2023-07-13T06:01:02;29.20;65.30
1175;DHT22;576;48.418;10.074;2023-07-13T06:03:31;29.20;65.30
1175;DHT22;576;48.418;10.074;2023-07-13T06:05:59;29.20;65.70
1175;DHT22;576;48.418;10.074;2023-07-13T06:08:28;29.20;65.40
1175;DHT22;576;48.418;10.074;2023-07-13T06:11:02;29.20;65.20
1175;DHT22;576;48.418;10.074;2023-07-13T06:13:31;29.20;65.10
1175;DHT22;576;48.418;10.074;2023-07-13T06:16:02;29.20;65.00
1175;DHT22;576;48.418;10.074;2023-07-13T06:18:32;29.20;64.80
1175;DHT22;576;48.418;10.074;2023-07-13T06:21:04;29.20;64.70
1175;DHT22;576;48.418;10.074;2023-07-13T06:23:33;29.20;64.50
1175;DHT22;576;48.418;10.074;2023-07-13T06:26:02;29.20;64.40
1175;DHT22;576;48.418;10.074;2023-07-13T06:28:30;29.20;64.40
1175;DHT22;576;48.418;10.074;2023-07-13T06:30:59;29.20;64.40
1175;DHT22;576;48.418;10.074;2023-07-13T06:33:29;29.20;64.40
1175;DHT22;576;48.418;10.074;2023-07-13T06:35:57;29.20;64.40
1175;DHT22;576;48.418;10.074;2023-07-13T06:38:25;29.20;64.40
1175;DHT22;576;48.418;10.074;2023-07-13T06:40:53;29.20;64.40
1175;DHT22;576;48.418;10.074;2023-07-13T06:43:22;29.20;64.40
1175;DHT22;576;48.418;10.074;2023-07-13T06:45:54;29.20;64.40
1175;DHT22;576;48.418;10.074;2023-07-13T06:48:22;29.20;64.30
1175;DHT22;576;48.418;10.074;2023-07-13T06:50:52;29.20;64.30
1175;DHT22;576;48.418;10.074;2023-07-13T06:53:21;29.20;64.30
1175;DHT22;576;48.418;10.074;2023-07-13T06:55:50;29.20;64.30
1175;DHT22;576;48.418;10.074;2023-07-13T06:58:19;29.30;64.20
1175;DHT22;576;48.418;10.074;2023-07-13T07:00:50;29.30;64.20
1175;DHT22;576;48.418;10.074;2023-07-13T07:03:19;29.30;64.10
1175;DHT22;576;48.418;10.074;2023-07-13T07:05:48;29.30;64.10
1175;DHT22;576;48.418;10.074;2023-07-13T07:08:17;29.30;64.10
1175;DHT22;576;48.418;10.074;2023-07-13T07:10:45;29.30;64.00
1175;DHT22;576;48.418;10.074;2023-07-13T07:13:14;29.30;63.80
1175;DHT22;576;48.418;10.074;2023-07-13T07:15:42;29.30;63.80
1175;DHT22;576;48.418;10.074;2023-07-13T07:18:10;29.30;63.60
1175;DHT22;576;48.418;10.074;2023-07-13T07:20:38;29.30;63.40
1175;DHT22;576;48.418;10.074;2023-07-13T07:23:07;29.30;63.30
1175;DHT22;576;48.418;10.074;2023-07-13T07:25:36;29.30;63.20
1175;DHT22;576;48.418;10.074;2023-07-13T07:28:09;29.30;63.20
1175;DHT22;576;48.418;10.074;2023-07-13T07:30:42;29.30;63.00
1175;DHT22;576;48.418;10.074;2023-07-13T07:33:13;29.30;62.90
1175;DHT22;576;48.418;10.074;2023-07-13T07:35:43;29.30;62.80
1175;DHT22;576;48.418;10.074;2023-07-13T07:38:31;29.30;62.70
1175;DHT22;576;48.418;10.074;2023-07-13T07:41:03;29.30;62.50
1175;DHT22;576;48.418;10.074;2023-07-13T07:43:34;29.30;62.60
1175;DHT22;576;48.418;10.074;2023-07-13T07:46:03;29.30;62.50
1175;DHT22;576;48.418;10.074;2023-07-13T07:48:31;29.30;62.50
1175;DHT22;576;48.418;10.074;2023-07-13T07:51:00;29.30;62.50
1175;DHT22;576;48.418;10.074;2023-07-13T07:53:28;29.30;62.40
1175;DHT22;576;48.418;10.074;2023-07-13T07:56:01;29.30;62.40
1175;DHT22;576;48.418;10.074;2023-07-13T07:58:49;29.30;62.90
1175;DHT22;576;48.418;10.074;2023-07-13T08:01:21;29.30;63.30
1175;DHT22;576;48.418;10.074;2023-07-13T08:03:52;29.30;63.50
1175;DHT22;576;48.418;10.074;2023-07-13T08:06:23;29.30;63.60
1175;DHT22;576;48.418;10.074;2023-07-13T08:09:11;29.40;63.50
1175;DHT22;576;48.418;10.074;2023-07-13T08:11:40;29.40;63.30
1175;DHT22;576;48.418;10.074;2023-07-13T08:14:11;29.50;63.20
1175;DHT22;576;48.418;10.074;2023-07-13T08:16:39;29.50;63.00
1175;DHT22;576;48.418;10.074;2023-07-13T08:19:08;29.50;63.00
1175;DHT22;576;48.418;10.074;2023-07-13T08:21:37;29.50;63.00
1175;DHT22;576;48.418;10.074;2023-07-13T08:24:05;29.50;63.00
1175;DHT22;576;48.418;10.074;2023-07-13T08:26:33;29.60;62.90
1175;DHT22;576;48.418;10.074;2023-07-13T08:29:03;29.60;62.90
1175;DHT22;576;48.418;10.074;2023-07-13T08:31:31;29.60;62.90
1175;DHT22;576;48.418;10.074;2023-07-13T08:34:00;29.70;62.90
1175;DHT22;576;48.418;10.074;2023-07-13T08:36:29;29.70;62.90
1175;DHT22;576;48.418;10.074;2023-07-13T08:38:57;29.70;62.70
1175;DHT22;576;48.418;10.074;2023-07-13T08:41:26;29.70;62.70
1175;DHT22;576;48.418;10.074;2023-07-13T08:43:58;29.70;62.70
1175;DHT22;576;48.418;10.074;2023-07-13T08:46:32;29.70;62.70
1175;DHT22;576;48.418;10.074;2023-07-13T08:49:04;29.80;62.70
1175;DHT22;576;48.418;10.074;2023-07-13T08:51:41;29.80;62.60
1175;DHT22;576;48.418;10.074;2023-07-13T08:54:18;29.80;62.50
1175;DHT22;576;48.418;10.074;2023-07-13T08:56:50;29.80;62.50
1175;DHT22;576;48.418;10.074;2023-07-13T08:59:22;29.80;62.40
1175;DHT22;576;48.418;10.074;2023-07-13T09:04:52;29.80;62.40
1175;DHT22;576;48.418;10.074;2023-07-13T09:07:29;29.80;62.50
1175;DHT22;576;48.418;10.074;2023-07-13T09:10:08;29.90;62.40
1175;DHT22;576;48.418;10.074;2023-07-13T09:12:48;29.90;62.30
1175;DHT22;576;48.418;10.074;2023-07-13T09:15:26;29.90;62.50
1175;DHT22;576;48.418;10.074;2023-07-13T09:18:02;29.90;62.50
1175;DHT22;576;48.418;10.074;2023-07-13T09:20:35;30.00;62.40
1175;DHT22;576;48.418;10.074;2023-07-13T09:23:10;30.00;62.40
1175;DHT22;576;48.418;10.074;2023-07-13T09:25:41;30.00;62.30
1175;DHT22;576;48.418;10.074;2023-07-13T09:28:17;30.00;62.30
1175;DHT22;576;48.418;10.074;2023-07-13T09:30:51;30.00;62.30
1175;DHT22;576;48.418;10.074;2023-07-13T09:33:22;30.00;62.20
1175;DHT22;576;48.418;10.074;2023-07-13T09:35:51;30.10;62.10
1175;DHT22;576;48.418;10.074;2023-07-13T09:38:22;30.10;62.10
1175;DHT22;576;48.418;10.074;2023-07-13T09:41:14;30.10;62.10
1175;DHT22;576;48.418;10.074;2023-07-13T09:44:02;30.10;62.10
1175;DHT22;576;48.418;10.074;2023-07-13T09:46:36;30.10;62.10
1175;DHT22;576;48.418;10.074;2023-07-13T09:49:07;30.10;62.10
1175;DHT22;576;48.418;10.074;2023-07-13T09:51:37;30.20;62.10
1175;DHT22;576;48.418;10.074;2023-07-13T09:54:09;30.20;62.00
1175;DHT22;576;48.418;10.074;2023-07-13T09:56:45;30.20;62.00
1175;DHT22;576;48.418;10.074;2023-07-13T09:59:19;30.20;62.00
1175;DHT22;576;48.418;10.074;2023-07-13T10:01:48;30.20;62.00
1175;DHT22;576;48.418;10.074;2023-07-13T10:04:20;30.20;61.90
1175;DHT22;576;48.418;10.074;2023-07-13T10:06:48;30.30;61.90
1175;DHT22;576;48.418;10.074;2023-07-13T10:09:19;30.30;61.90
1175;DHT22;576;48.418;10.074;2023-07-13T10:11:50;30.30;61.80
1175;DHT22;576;48.418;10.074;2023-07-13T10:14:21;30.30;61.80
1175;DHT22;576;48.418;10.074;2023-07-13T10:16:58;30.30;61.80
1175;DHT22;576;48.418;10.074;2023-07-13T10:19:32;30.30;61.80
1175;DHT22;576;48.418;10.074;2023-07-13T10:22:12;30.30;61.80
1175;DHT22;576;48.418;10.074;2023-07-13T10:24:43;30.40;61.80
1175;DHT22;576;48.418;10.074;2023-07-13T10:27:15;30.40;61.70
1175;DHT22;576;48.418;10.074;2023-07-13T10:29:47;30.40;61.70
1175;DHT22;576;48.418;10.074;2023-07-13T10:32:17;30.40;61.60
1175;DHT22;576;48.418;10.074;2023-07-13T10:34:48;30.30;61.60
1175;DHT22;576;48.418;10.074;2023-07-13T10:37:21;30.30;61.50
1175;DHT22;576;48.418;10.074;2023-07-13T10:39:54;30.30;61.50
1175;DHT22;576;48.418;10.074;2023-07-13T10:42:28;30.30;61.50
1175;DHT22;576;48.418;10.074;2023-07-13T10:44:57;30.40;61.70
1175;DHT22;576;48.418;10.074;2023-07-13T10:47:26;30.40;61.60
1175;DHT22;576;48.418;10.074;2023-07-13T10:49:58;30.40;61.50
1175;DHT22;576;48.418;10.074;2023-07-13T10:52:43;30.40;61.40
1175;DHT22;576;48.418;10.074;2023-07-13T10:55:31;30.40;61.40
1175;DHT22;576;48.418;10.074;2023-07-13T10:58:02;30.40;61.40
1175;DHT22;576;48.418;10.074;2023-07-13T11:00:32;30.40;61.40
1175;DHT22;576;48.418;10.074;2023-07-13T11:03:02;30.40;61.40
1175;DHT22;576;48.418;10.074;2023-07-13T11:05:33;30.40;61.30
1175;DHT22;576;48.418;10.074;2023-07-13T11:08:13;30.40;61.10
1175;DHT22;576;48.418;10.074;2023-07-13T11:10:51;30.40;61.20
1175;DHT22;576;48.418;10.074;2023-07-13T11:13:55;30.40;61.10
1175;DHT22;576;48.418;10.074;2023-07-13T11:16:43;30.40;60.90
1175;DHT22;576;48.418;10.074;2023-07-13T11:19:38;30.40;60.90
1175;DHT22;576;48.418;10.074;2023-07-13T11:22:15;30.40;60.70
1175;DHT22;576;48.418;10.074;2023-07-13T11:25:00;30.40;60.60
1175;DHT22;576;48.418;10.074;2023-07-13T11:27:36;30.40;60.50
1175;DHT22;576;48.418;10.074;2023-07-13T11:30:31;30.40;60.50
1175;DHT22;576;48.418;10.074;2023-07-13T11:33:04;30.40;60.50
1175;DHT22;576;48.418;10.074;2023-07-13T11:35:48;30.30;60.70
1175;DHT22;576;48.418;10.074;2023-07-13T11:38:20;30.30;60.60
1175;DHT22;576;48.418;10.074;2023-07-13T11:40:52;30.30;60.50
1175;DHT22;576;48.418;10.074;2023-07-13T11:43:23;30.30;60.40
1175;DHT22;576;48.418;10.074;2023-07-13T11:45:52;30.30;60.20
1175;DHT22;576;48.418;10.074;2023-07-13T11:48:23;30.30;60.10
1175;DHT22;576;48.418;10.074;2023-07-13T11:50:56;30.30;60.00
1175;DHT22;576;48.418;10.074;2023-07-13T11:53:29;30.40;60.10
1175;DHT22;576;48.418;10.074;2023-07-13T11:55:58;30.40;60.10
1175;DHT22;576;48.418;10.074;2023-07-13T11:58:27;30.40;60.00
1175;DHT22;576;48.418;10.074;2023-07-13T12:00:59;30.50;60.00
1175;DHT22;576;48.418;10.074;2023-07-13T12:03:32;30.50;60.30
1175;DHT22;576;48.418;10.074;2023-07-13T12:06:03;30.50;60.10
1175;DHT22;576;48.418;10.074;2023-07-13T12:08:39;30.60;60.00
1175;DHT22;576;48.418;10.074;2023-07-13T12:11:18;30.60;60.00
1175;DHT22;576;48.418;10.074;2023-07-13T12:13:47;30.70;59.80
1175;DHT22;576;48.418;10.074;2023-07-13T12:16:29;30.70;59.60
1175;DHT22;576;48.418;10.074;2023-07-13T12:19:02;30.70;59.70
1175;DHT22;576;48.418;10.074;2023-07-13T12:21:32;30.70;59.90
1175;DHT22;576;48.418;10.074;2023-07-13T12:24:03;30.70;59.90
1175;DHT22;576;48.418;10.074;2023-07-13T12:26:32;30.70;60.10
1175;DHT22;576;48.418;10.074;2023-07-13T12:29:05;30.70;60.10
1175;DHT22;576;48.418;10.074;2023-07-13T12:31:37;30.70;60.00
1175;DHT22;576;48.418;10.074;2023-07-13T12:34:08;30.70;60.00
1175;DHT22;576;48.418;10.074;2023-07-13T12:36:41;30.60;60.10
1175;DHT22;576;48.418;10.074;2023-07-13T12:39:17;30.60;60.10
1175;DHT22;576;48.418;10.074;2023-07-13T12:41:47;30.60;60.20
1175;DHT22;576;48.418;10.074;2023-07-13T12:44:19;30.60;60.30
1175;DHT22;576;48.418;10.074;2023-07-13T12:46:58;30.70;60.50
1175;DHT22;576;48.418;10.074;2023-07-13T12:49:30;30.80;60.30
1175;DHT22;576;48.418;10.074;2023-07-13T12:52:09;30.90;60.00
1175;DHT22;576;48.418;10.074;2023-07-13T12:54:53;31.00;59.70
1175;DHT22;576;48.418;10.074;2023-07-13T12:57:39;30.90;59.40
1175;DHT22;576;48.418;10.074;2023-07-13T13:00:23;30.90;59.70
1175;DHT22;576;48.418;10.074;2023-07-13T13:02:56;30.90;59.90
1175;DHT22;576;48.418;10.074;2023-07-13T13:05:29;31.00;59.90
1175;DHT22;576;48.418;10.074;2023-07-13T13:07:58;31.00;59.80
1175;DHT22;576;48.418;10.074;2023-07-13T13:10:27;31.10;59.80
1175;DHT22;576;48.418;10.074;2023-07-13T13:12:56;31.10;59.60
1175;DHT22;576;48.418;10.074;2023-07-13T13:15:24;31.20;59.20
1175;DHT22;576;48.418;10.074;2023-07-13T13:17:52;31.20;58.80
1175;DHT22;576;48.418;10.074;2023-07-13T13:20:22;31.20;58.80
1175;DHT22;576;48.418;10.074;2023-07-13T13:22:50;31.10;58.90
1175;DHT22;576;48.418;10.074;2023-07-13T13:25:18;31.10;59.10
1175;DHT22;576;48.418;10.074;2023-07-13T13:27:49;31.00;59.20
1175;DHT22;576;48.418;10.074;2023-07-13T13:30:18;31.00;59.50
1175;DHT22;576;48.418;10.074;2023-07-13T13:32:48;31.00;59.50
1175;DHT22;576;48.418;10.074;2023-07-13T13:35:19;31.00;59.60
1175;DHT22;576;48.418;10.074;2023-07-13T13:37:48;31.00;59.60
1175;DHT22;576;48.418;10.074;2023-07-13T13:40:19;31.10;59.50
1175;DHT22;576;48.418;10.074;2023-07-13T13:42:49;31.10;59.50
1175;DHT22;576;48.418;10.074;2023-07-13T13:45:19;31.20;59.60
1175;DHT22;576;48.418;10.074;2023-07-13T13:47:48;31.20;59.60
1175;DHT22;576;48.418;10.074;2023-07-13T13:50:18;31.30;59.60
1175;DHT22;576;48.418;10.074;2023-07-13T13:52:47;31.30;59.40
1175;DHT22;576;48.418;10.074;2023-07-13T13:55:17;31.30;59.30
1175;DHT22;576;48.418;10.074;2023-07-13T13:57:47;31.30;59.30
1175;DHT22;576;48.418;10.074;2023-07-13T14:00:17;31.30;59.30
1175;DHT22;576;48.418;10.074;2023-07-13T14:02:47;31.30;59.30
1175;DHT22;576;48.418;10.074;2023-07-13T14:05:20;31.30;59.30
1175;DHT22;576;48.418;10.074;2023-07-13T14:07:49;31.30;59.40
1175;DHT22;576;48.418;10.074;2023-07-13T14:10:19;31.30;59.40
1175;DHT22;576;48.418;10.074;2023-07-13T14:12:50;31.30;59.40
1175;DHT22;576;48.418;10.074;2023-07-13T14:15:25;31.30;59.40
1175;DHT22;576;48.418;10.074;2023-07-13T14:17:54;31.30;59.30
1175;DHT22;576;48.418;10.074;2023-07-13T14:20:25;31.20;59.00
1175;DHT22;576;48.418;10.074;2023-07-13T14:22:54;31.20;59.00
1175;DHT22;576;48.418;10.074;2023-07-13T14:25:22;31.10;59.00
1175;DHT22;576;48.418;10.074;2023-07-13T14:27:57;31.10;59.00
1175;DHT22;576;48.418;10.074;2023-07-13T14:30:29;31.10;58.80
1175;DHT22;576;48.418;10.074;2023-07-13T14:32:57;31.10;58.80
1175;DHT22;576;48.418;10.074;2023-07-13T14:35:25;31.10;58.70
1175;DHT22;576;48.418;10.074;2023-07-13T14:37:54;31.10;58.70
1175;DHT22;576;48.418;10.074;2023-07-13T14:40:29;31.10;58.80
1175;DHT22;576;48.418;10.074;2023-07-13T14:42:58;31.10;58.80
1175;DHT22;576;48.418;10.074;2023-07-13T14:45:26;31.10;58.70
1175;DHT22;576;48.418;10.074;2023-07-13T14:47:57;31.10;58.70
1175;DHT22;576;48.418;10.074;2023-07-13T14:50:30;31.00;58.80
1175;DHT22;576;48.418;10.074;2023-07-13T14:52:59;31.00;58.90
1175;DHT22;576;48.418;10.074;2023-07-13T14:55:27;30.90;58.90
1175;DHT22;576;48.418;10.074;2023-07-13T14:57:55;30.90;59.00
1175;DHT22;576;48.418;10.074;2023-07-13T15:00:24;30.90;59.10
1175;DHT22;576;48.418;10.074;2023-07-13T15:02:57;30.80;59.10
1175;DHT22;576;48.418;10.074;2023-07-13T15:05:28;30.80;59.20
1175;DHT22;576;48.418;10.074;2023-07-13T15:07:58;30.80;59.20
1175;DHT22;576;48.418;10.074;2023-07-13T15:10:28;30.80;59.10
1175;DHT22;576;48.418;10.074;2023-07-13T15:12:59;30.90;59.00
1175;DHT22;576;48.418;10.074;2023-07-13T15:15:29;30.90;59.00
1175;DHT22;576;48.418;10.074;2023-07-13T15:18:00;31.00;58.80
1175;DHT22;576;48.418;10.074;2023-07-13T15:20:31;31.00;58.70
1175;DHT22;576;48.418;10.074;2023-07-13T15:23:01;31.00;58.70
1175;DHT22;576;48.418;10.074;2023-07-13T15:25:32;31.00;58.70
1175;DHT22;576;48.418;10.074;2023-07-13T15:28:01;31.00;58.80
1175;DHT22;576;48.418;10.074;2023-07-13T15:30:31;31.00;58.80
1175;DHT22;576;48.418;10.074;2023-07-13T15:33:11;31.00;58.80
1175;DHT22;576;48.418;10.074;2023-07-13T15:35:39;30.90;58.80
1175;DHT22;576;48.418;10.074;2023-07-13T15:38:17;30.90;58.80
1175;DHT22;576;48.418;10.074;2023-07-13T15:40:46;30.90;58.90
1175;DHT22;576;48.418;10.074;2023-07-13T15:43:15;30.90;58.90
1175;DHT22;576;48.418;10.074;2023-07-13T15:45:45;30.80;59.00
1175;DHT22;576;48.418;10.074;2023-07-13T15:48:16;30.80;59.10
1175;DHT22;576;48.418;10.074;2023-07-13T15:50:46;30.80;59.10
1175;DHT22;576;48.418;10.074;2023-07-13T15:53:19;30.80;59.10
1175;DHT22;576;48.418;10.074;2023-07-13T15:55:48;30.90;59.10
1175;DHT22;576;48.418;10.074;2023-07-13T15:58:16;30.90;59.10
1175;DHT22;576;48.418;10.074;2023-07-13T16:00:45;30.90;59.00
1175;DHT22;576;48.418;10.074;2023-07-13T16:03:15;30.90;59.00
1175;DHT22;576;48.418;10.074;2023-07-13T16:05:43;30.90;59.00
1175;DHT22;576;48.418;10.074;2023-07-13T16:08:20;30.90;59.00
1175;DHT22;576;48.418;10.074;2023-07-13T16:10:50;30.90;59.00
1175;DHT22;576;48.418;10.074;2023-07-13T16:13:20;30.90;59.00
1175;DHT22;576;48.418;10.074;2023-07-13T16:15:48;30.90;59.00
1175;DHT22;576;48.418;10.074;2023-07-13T16:18:18;30.90;59.00
1175;DHT22;576;48.418;10.074;2023-07-13T16:20:47;30.90;59.00
1175;DHT22;576;48.418;10.074;2023-07-13T16:23:17;30.90;59.10
1175;DHT22;576;48.418;10.074;2023-07-13T16:25:45;30.80;59.10
1175;DHT22;576;48.418;10.074;2023-07-13T16:28:15;30.80;59.10
1175;DHT22;576;48.418;10.074;2023-07-13T16:30:44;30.90;59.10